Terminal Aerodrome Forecast
Issued by NWS Amarillo, TX

Home | Current Version | Previous Version | Text Only | Print | Product List | Glossary On
Versions: 1 2 3 4 5 6 7 8 9 10 11 12 13 14 15 16
000
FTUS44 KAMA 090520
TAFDHT
TAF
KDHT 090520Z 0906/1006 17013KT P6SM OVC020
     FM091000 20014KT P6SM -FZDZ SCT005 OVC010
     FM091600 20012KT P6SM SCT020
     FM092300 VRB05KT P6SM SCT200=

USA.gov is the U.S. government's official web portal to all federal, state and local government web resources and services.